createdAt,value
2023-03-10T00:04:57.976Z,3.79
2023-03-10T00:10:22.544Z,3.63
2023-03-10T00:15:46.494Z,3.49
2023-03-10T00:21:16.055Z,3.43
2023-03-10T00:26:41.454Z,3.44
2023-03-10T00:32:06.757Z,3.44
2023-03-10T00:37:36.183Z,3.42
2023-03-10T00:43:00.538Z,3.42
2023-03-10T00:48:24.850Z,3.41
2023-03-10T00:53:49.535Z,3.48
2023-03-10T00:59:15.307Z,3.68
2023-03-10T01:04:39.612Z,3.92
2023-03-10T01:10:03.912Z,4.16
2023-03-10T01:15:28.222Z,4.39
2023-03-10T01:20:52.323Z,4.63
2023-03-10T01:26:18.586Z,4.88
2023-03-10T01:31:44.275Z,5.07
2023-03-10T01:37:08.890Z,5.21
2023-03-10T01:42:32.893Z,5.36
2023-03-10T01:47:57.661Z,5.51
2023-03-10T01:53:22.968Z,5.64
2023-03-10T01:58:47.875Z,5.70
2023-03-10T02:04:23.801Z,5.70
2023-03-10T02:09:49.947Z,5.67
2023-03-10T02:15:14.441Z,5.68
2023-03-10T02:21:10.287Z,5.73
2023-03-10T02:27:11.928Z,5.84
2023-03-10T02:32:41.611Z,5.85
2023-03-10T02:38:07.503Z,5.78
2023-03-10T02:43:35.237Z,5.69
2023-03-10T02:49:07.796Z,5.57
2023-03-10T02:54:35.597Z,5.47
2023-03-10T02:59:59.933Z,5.44
2023-03-10T03:05:24.937Z,5.41
2023-03-10T03:10:51.175Z,5.48
2023-03-10T03:16:16.049Z,5.62
2023-03-10T03:21:41.573Z,5.76
2023-03-10T03:27:06.457Z,5.88
2023-03-10T03:32:31.671Z,5.98
2023-03-10T03:37:56.583Z,5.97
2023-03-10T03:43:22.459Z,5.99
2023-03-10T03:48:46.776Z,5.98
2023-03-10T03:54:11.119Z,5.96
2023-03-10T03:59:36.390Z,5.93
2023-03-10T04:05:01.125Z,6.00
2023-03-10T04:10:27.348Z,6.15
2023-03-10T04:16:00.113Z,6.35
2023-03-10T04:21:30.049Z,6.56
2023-03-10T04:26:55.062Z,6.72
2023-03-10T04:32:20.105Z,6.84
2023-03-10T04:37:45.109Z,6.92
2023-03-10T04:43:09.845Z,6.99
2023-03-10T04:48:36.521Z,6.99
2023-03-10T04:54:01.452Z,6.93
2023-03-10T04:59:28.284Z,6.88
2023-03-10T05:04:53.702Z,6.83
2023-03-10T05:10:18.233Z,6.86
2023-03-10T05:15:43.464Z,6.92
2023-03-10T05:21:08.691Z,6.98
2023-03-10T05:26:34.922Z,7.05
2023-03-10T05:32:00.220Z,7.11
2023-03-10T05:37:29.501Z,7.15
2023-03-10T05:42:53.672Z,7.15
2023-03-10T05:48:17.797Z,7.16
2023-03-10T05:53:44.030Z,7.20
2023-03-10T05:59:12.515Z,7.27
2023-03-10T06:04:37.382Z,7.34
2023-03-10T06:10:01.856Z,7.40
2023-03-10T06:15:26.342Z,7.42
2023-03-10T06:20:54.102Z,7.40
2023-03-10T06:26:19.618Z,7.46
2023-03-10T06:31:44.509Z,7.52
2023-03-10T06:37:08.881Z,7.58
2023-03-10T06:42:35.268Z,7.70
2023-03-10T06:47:59.382Z,7.83
2023-03-10T06:53:27.877Z,7.93
2023-03-10T06:58:53.101Z,7.98
2023-03-10T07:04:17.317Z,8.00
2023-03-10T07:09:41.902Z,8.00
2023-03-10T07:15:06.725Z,8.04
2023-03-10T07:20:31.065Z,8.07
2023-03-10T07:25:57.740Z,8.15
2023-03-10T07:31:24.041Z,8.22
2023-03-10T07:36:48.542Z,8.29
2023-03-10T07:42:12.900Z,8.37
2023-03-10T07:47:37.219Z,8.47
2023-03-10T07:53:01.733Z,8.48
2023-03-10T07:58:26.459Z,8.52
2023-03-10T08:03:52.056Z,8.63
2023-03-10T08:09:16.661Z,8.77
2023-03-10T08:14:41.450Z,8.91
2023-03-10T08:20:07.022Z,9.08
2023-03-10T08:25:31.363Z,9.24
2023-03-10T08:31:04.073Z,9.44
2023-03-10T08:36:32.341Z,9.67
2023-03-10T08:41:56.906Z,9.75
2023-03-10T08:47:21.458Z,9.77
2023-03-10T08:52:45.901Z,9.94
2023-03-10T08:58:09.997Z,10.29
2023-03-10T09:03:43.278Z,10.70
2023-03-10T09:09:10.777Z,10.70
2023-03-10T09:14:36.092Z,10.56
2023-03-10T09:20:00.101Z,10.57
2023-03-10T09:25:24.577Z,10.64
2023-03-10T09:30:48.642Z,10.92
2023-03-10T09:36:12.815Z,11.21
2023-03-10T09:42:26.016Z,11.25
2023-03-10T09:47:59.613Z,11.33
2023-03-10T09:53:45.222Z,11.33
2023-03-10T09:59:36.243Z,11.34
2023-03-10T10:05:07.488Z,11.57
2023-03-10T10:10:36.922Z,11.85
2023-03-10T10:16:32.042Z,11.94
2023-03-10T10:22:07.457Z,12.02
2023-03-10T10:27:32.547Z,12.23
2023-03-10T10:32:59.510Z,12.26
2023-03-10T10:38:30.513Z,12.06
2023-03-10T10:43:59.617Z,11.93
2023-03-10T10:49:32.084Z,11.90
2023-03-10T10:54:59.494Z,12.21
2023-03-10T11:00:30.145Z,12.52
2023-03-10T11:05:56.418Z,12.71
2023-03-10T11:11:44.369Z,12.75
2023-03-10T11:17:50.104Z,12.81
2023-03-10T11:23:32.572Z,12.81
2023-03-10T11:29:34.895Z,12.79
2023-03-10T11:35:00.979Z,12.81
2023-03-10T11:40:49.497Z,12.74
2023-03-10T11:46:25.302Z,12.76
2023-03-10T11:51:59.001Z,12.86
2023-03-10T11:57:28.705Z,12.92
2023-03-10T12:02:55.706Z,13.05
2023-03-10T12:08:23.152Z,13.22
2023-03-10T12:13:52.658Z,13.21
2023-03-10T12:19:16.861Z,13.25
2023-03-10T12:24:48.454Z,13.55
2023-03-10T12:30:48.752Z,13.89
2023-03-10T12:36:34.161Z,14.17
2023-03-10T12:42:04.108Z,14.51
2023-03-10T12:47:45.584Z,14.56
2023-03-10T12:53:23.242Z,14.33
2023-03-10T12:58:55.328Z,14.12
2023-03-10T13:04:23.441Z,14.09
2023-03-10T13:09:50.543Z,14.08
2023-03-10T13:15:29.979Z,14.17
2023-03-10T13:20:54.215Z,14.02
2023-03-10T13:26:18.377Z,13.91
2023-03-10T13:31:53.094Z,13.76
2023-03-10T13:37:18.467Z,13.89
2023-03-10T13:42:44.659Z,13.98
2023-03-10T13:48:14.091Z,13.86
2023-03-10T13:53:38.020Z,13.67
2023-03-10T13:59:03.909Z,13.53
2023-03-10T14:04:55.349Z,13.58
2023-03-10T14:10:21.510Z,13.57
2023-03-10T14:15:55.368Z,13.38
2023-03-10T14:21:39.176Z,13.32
2023-03-10T14:27:03.076Z,13.40
2023-03-10T14:32:27.807Z,13.47
2023-03-10T14:37:53.453Z,13.35
2023-03-10T14:43:22.932Z,13.18
2023-03-10T14:48:47.607Z,13.07
2023-03-10T14:54:31.937Z,13.01
2023-03-10T14:59:56.178Z,12.99
2023-03-10T15:05:23.677Z,13.00
2023-03-10T15:11:06.542Z,12.95
2023-03-10T15:33:34.252Z,12.79
2023-03-10T15:39:03.875Z,12.70
2023-03-10T15:45:03.630Z,12.61
2023-03-10T15:51:28.554Z,12.47
2023-03-10T15:56:58.248Z,12.36
2023-03-10T16:02:22.950Z,12.25
2023-03-10T16:07:49.423Z,12.11
2023-03-10T16:13:14.595Z,12.00
2023-03-10T16:18:40.519Z,11.91
2023-03-10T16:24:05.861Z,11.85
2023-03-10T16:29:30.639Z,11.77
2023-03-10T16:34:57.247Z,11.54
2023-03-10T16:40:21.676Z,11.11
2023-03-10T16:45:49.070Z,10.66
2023-03-10T16:51:28.155Z,10.26
2023-03-10T16:56:57.495Z,9.76
2023-03-10T17:02:26.077Z,9.40
2023-03-10T17:07:56.083Z,9.18
2023-03-10T17:13:21.369Z,9.10
2023-03-10T17:18:46.252Z,9.07
2023-03-10T17:24:11.188Z,9.05
2023-03-10T17:29:36.140Z,8.86
2023-03-10T17:35:00.491Z,8.73
2023-03-10T17:40:24.518Z,8.64
2023-03-10T17:45:58.885Z,8.57
2023-03-10T17:51:29.806Z,8.51
2023-03-10T17:56:54.173Z,8.41
2023-03-10T18:02:18.477Z,8.29
2023-03-10T18:07:42.936Z,8.16
2023-03-10T18:13:10.430Z,8.05
2023-03-10T18:18:34.863Z,7.98
2023-03-10T18:23:59.760Z,7.92
2023-03-10T18:29:24.109Z,7.84
2023-03-10T18:34:48.354Z,7.76
2023-03-10T18:40:16.328Z,7.66
2023-03-10T18:45:41.273Z,7.57
2023-03-10T18:51:06.562Z,7.51
2023-03-10T18:56:31.811Z,7.43
2023-03-10T19:01:56.028Z,7.35
2023-03-10T19:07:20.961Z,7.27
2023-03-10T19:12:45.247Z,7.22
2023-03-10T19:18:09.787Z,7.15
2023-03-10T19:23:35.453Z,7.07
2023-03-10T19:29:00.600Z,6.98
2023-03-10T19:34:26.286Z,6.87
2023-03-10T19:39:51.070Z,6.82
2023-03-10T19:45:18.206Z,6.81
2023-03-10T19:50:42.738Z,6.83
2023-03-10T19:56:08.234Z,6.86
2023-03-10T20:01:32.952Z,6.92
2023-03-10T20:06:57.494Z,6.99
2023-03-10T20:12:21.978Z,7.06
2023-03-10T20:17:46.900Z,7.09
2023-03-10T20:23:11.456Z,7.08
2023-03-10T20:28:37.456Z,7.07
2023-03-10T20:34:04.421Z,7.09
2023-03-10T20:39:28.387Z,7.13
2023-03-10T20:44:52.735Z,7.15
2023-03-10T20:50:18.064Z,7.12
2023-03-10T20:55:42.906Z,7.08
2023-03-10T21:01:07.556Z,7.03
2023-03-10T21:06:32.665Z,6.93
2023-03-10T21:11:57.070Z,6.87
2023-03-10T21:17:21.481Z,6.83
2023-03-10T21:22:46.790Z,6.80
2023-03-10T21:28:10.746Z,6.78
2023-03-10T21:33:35.733Z,6.75
2023-03-10T21:39:00.353Z,6.76
2023-03-10T21:44:24.451Z,6.86
2023-03-10T21:49:49.268Z,6.99
2023-03-10T21:55:18.772Z,7.09
2023-03-10T22:00:43.170Z,7.20
2023-03-10T22:06:08.846Z,7.27
2023-03-10T22:11:33.656Z,7.29
2023-03-10T22:16:57.971Z,7.30
2023-03-10T22:22:23.435Z,7.32
2023-03-10T22:27:54.132Z,7.33
2023-03-10T22:33:18.560Z,7.30
2023-03-10T22:38:43.509Z,7.27
2023-03-10T22:44:08.163Z,7.22
2023-03-10T22:49:33.427Z,7.17
2023-03-10T22:54:59.886Z,7.11
2023-03-10T23:00:24.570Z,7.07
2023-03-10T23:05:48.542Z,7.01
2023-03-10T23:11:14.612Z,6.94
2023-03-10T23:16:39.130Z,6.86
2023-03-10T23:22:04.126Z,6.80
2023-03-10T23:27:28.061Z,6.73
2023-03-10T23:32:53.800Z,6.69
2023-03-10T23:38:18.480Z,6.64
2023-03-10T23:43:43.799Z,6.58
2023-03-10T23:49:09.121Z,6.41
2023-03-10T23:54:33.008Z,6.19
2023-03-10T23:59:57.835Z,5.96
